Acapulco Jet — IWUM — position and weather

sailwx.info

Track history (hours):
 
Tides and Currents Weather Stations Pressure Air Temp Water Temp Dewpoint Dewpoint Depression Visibility Wind Speed Wind Dir Waves Ship Positions

Acapulco Jet

Last reported at 2017-Nov-17 16:19 UTC. Time now 2017-Nov-18 02:48 UTC.
Position N 40°47' E 014°12'.

Length 35 m; draft 1.2 m.

Type: High speed craft. MMSI: 247050100.

Date/timePositionNaut miles runAvg speedWind from/ knotsBaromVisibWave heightAir tempDewpointWater temp
2017-Nov-17 16:19N 40°47' E 014°12'0 0.1
2017-Nov-17 13:28N 40°47' E 014°12'2 0.1
2017-Nov-16 16:24N 40°48' E 014°15'0 0.1
2017-Nov-16 13:34N 40°48' E 014°14'230.6
2017-Nov-16 13:30N 40°47' E 014°12'3 0.5
2017-Nov-16 08:20N 40°48' E 014°15'3 1.9
2017-Nov-16 06:51N 40°47' E 014°12'0 0.0
2017-Nov-15 19:35N 40°47' E 014°12'3 3.3
2017-Nov-15 18:44N 40°48' E 014°15'2 1.4
2017-Nov-15 17:12N 40°47' E 014°13'0 0.1
2017-Nov-15 16:22N 40°47' E 014°13'1 0.6
2017-Nov-15 14:49N 40°47' E 014°12'2 1.5
2017-Nov-15 13:32N 40°48' E 014°14'131.6
2017-Nov-15 13:30N 40°47' E 014°13'1 0.1
2017-Nov-15 08:17N 40°48' E 014°14'1 1.0
2017-Nov-15 06:52N 40°47' E 014°12'2 0.2
2017-Nov-14 19:39N 40°47' E 014°09'5 4.9
2017-Nov-14 18:44N 40°48' E 014°15'3 1.8
2017-Nov-14 17:12N 40°47' E 014°12'3 4.2
2017-Nov-14 16:26N 40°49' E 014°15'0 0.2
2017-Nov-14 14:02N 40°48' E 014°15'229.8
2017-Nov-14 13:58N 40°47' E 014°13'1 0.3
2017-Nov-14 12:15N 40°47' E 014°12'3 0.8
2017-Nov-14 08:18N 40°49' E 014°15'3 2.4
2017-Nov-14 06:53N 40°47' E 014°12'1 0.0
2017-Nov-12 08:17N 40°47' E 014°13'1 0.1
2017-Nov-11 17:10N 40°47' E 014°11'2 1.6
2017-Nov-11 15:51N 40°48' E 014°14'2 0.8
2017-Nov-11 13:54N 40°47' E 014°12'0 0.0
2017-Nov-11 10:07N 40°47' E 014°12'2 1.6
2017-Nov-11 09:07N 40°48' E 014°14'2 0.9
2017-Nov-11 06:52N 40°47' E 014°11'1 0.1
2017-Nov-10 18:39N 40°47' E 014°12'0 0.3
2017-Nov-10 17:10N 40°47' E 014°12'2 0.3
2017-Nov-10 08:21N 40°48' E 014°15'2 0.1
2017-Nov-09 18:41N 40°47' E 014°13'1 0.8
2017-Nov-09 17:17N 40°46' E 014°12'4 4.3
2017-Nov-09 16:28N 40°49' E 014°16'3 1.9
2017-Nov-09 14:47N 40°47' E 014°12'3 2.5
2017-Nov-09 13:36N 40°48' E 014°16'329.8
2017-Nov-09 13:30N 40°47' E 014°12'0 0.3
2017-Nov-09 12:13N 40°47' E 014°12'0 0.3
2017-Nov-09 11:16N 40°47' E 014°12'0 0.1
2017-Nov-09 08:59N 40°47' E 014°12'3 1.4
2017-Nov-09 06:56N 40°49' E 014°15'3 0.2
2017-Nov-08 16:42N 40°47' E 014°12'1 1.0
2017-Nov-08 15:49N 40°47' E 014°13'1 0.4
2017-Nov-08 13:54N 40°47' E 014°13'0 0.0
2017-Nov-08 11:17N 40°47' E 014°12'1 0.6
2017-Nov-08 09:06N 40°47' E 014°11'217.6
2017-Nov-08 09:00N 40°48' E 014°13'2 0.7
2017-Nov-08 06:50N 40°48' E 014°15'  
Track history (hours):
 
Tides and Currents Weather Stations Pressure Air Temp Water Temp Dewpoint Dewpoint Depression Visibility Wind Speed Wind Dir Waves Ship Positions

Acapulco Jet

Last reported at 2017-Nov-17 16:19 UTC. Time now 2017-Nov-18 02:48 UTC.
Position N 40°47' E 014°12'.

Length 35 m; draft 1.2 m.

Type: High speed craft. MMSI: 247050100.

Date/timePositionNaut miles runAvg speedWind from/ knotsBaromVisibWave heightAir tempDewpointWater temp
2017-Nov-17 16:19N 40°47' E 014°12'0 0.1
2017-Nov-17 13:28N 40°47' E 014°12'2 0.1
2017-Nov-16 16:24N 40°48' E 014°15'0 0.1
2017-Nov-16 13:34N 40°48' E 014°14'230.6
2017-Nov-16 13:30N 40°47' E 014°12'3 0.5
2017-Nov-16 08:20N 40°48' E 014°15'3 1.9
2017-Nov-16 06:51N 40°47' E 014°12'0 0.0
2017-Nov-15 19:35N 40°47' E 014°12'3 3.3
2017-Nov-15 18:44N 40°48' E 014°15'2 1.4
2017-Nov-15 17:12N 40°47' E 014°13'0 0.1
2017-Nov-15 16:22N 40°47' E 014°13'1 0.6
2017-Nov-15 14:49N 40°47' E 014°12'2 1.5
2017-Nov-15 13:32N 40°48' E 014°14'131.6
2017-Nov-15 13:30N 40°47' E 014°13'1 0.1
2017-Nov-15 08:17N 40°48' E 014°14'1 1.0
2017-Nov-15 06:52N 40°47' E 014°12'2 0.2
2017-Nov-14 19:39N 40°47' E 014°09'5 4.9
2017-Nov-14 18:44N 40°48' E 014°15'3 1.8
2017-Nov-14 17:12N 40°47' E 014°12'3 4.2
2017-Nov-14 16:26N 40°49' E 014°15'0 0.2
2017-Nov-14 14:02N 40°48' E 014°15'229.8
2017-Nov-14 13:58N 40°47' E 014°13'1 0.3
2017-Nov-14 12:15N 40°47' E 014°12'3 0.8
2017-Nov-14 08:18N 40°49' E 014°15'3 2.4
2017-Nov-14 06:53N 40°47' E 014°12'1 0.0
2017-Nov-12 08:17N 40°47' E 014°13'1 0.1
2017-Nov-11 17:10N 40°47' E 014°11'2 1.6
2017-Nov-11 15:51N 40°48' E 014°14'2 0.8
2017-Nov-11 13:54N 40°47' E 014°12'0 0.0
2017-Nov-11 10:07N 40°47' E 014°12'2 1.6
2017-Nov-11 09:07N 40°48' E 014°14'2 0.9
2017-Nov-11 06:52N 40°47' E 014°11'1 0.1
2017-Nov-10 18:39N 40°47' E 014°12'0 0.3
2017-Nov-10 17:10N 40°47' E 014°12'2 0.3
2017-Nov-10 08:21N 40°48' E 014°15'2 0.1
2017-Nov-09 18:41N 40°47' E 014°13'1 0.8
2017-Nov-09 17:17N 40°46' E 014°12'4 4.3
2017-Nov-09 16:28N 40°49' E 014°16'3 1.9
2017-Nov-09 14:47N 40°47' E 014°12'3 2.5
2017-Nov-09 13:36N 40°48' E 014°16'329.8
2017-Nov-09 13:30N 40°47' E 014°12'0 0.3
2017-Nov-09 12:13N 40°47' E 014°12'0 0.3
2017-Nov-09 11:16N 40°47' E 014°12'0 0.1
2017-Nov-09 08:59N 40°47' E 014°12'3 1.4
2017-Nov-09 06:56N 40°49' E 014°15'3 0.2
2017-Nov-08 16:42N 40°47' E 014°12'1 1.0
2017-Nov-08 15:49N 40°47' E 014°13'1 0.4
2017-Nov-08 13:54N 40°47' E 014°13'0 0.0
2017-Nov-08 11:17N 40°47' E 014°12'1 0.6
2017-Nov-08 09:06N 40°47' E 014°11'217.6
2017-Nov-08 09:00N 40°48' E 014°13'2 0.7
2017-Nov-08 06:50N 40°48' E 014°15'  

Dump ship's entire track history